sensor_id;sensor_type;location;lat;lon;timestamp;temperature;humidity
54788;DHT22;59598;48.112;16.280;2023-08-20T00:02:10;21.10;99.90
54788;DHT22;59598;48.112;16.280;2023-08-20T00:04:50;21.10;99.90
54788;DHT22;59598;48.112;16.280;2023-08-20T00:07:30;21.00;99.90
54788;DHT22;59598;48.112;16.280;2023-08-20T00:10:03;20.90;99.90
54788;DHT22;59598;48.112;16.280;2023-08-20T00:12:40;20.90;99.90
54788;DHT22;59598;48.112;16.280;2023-08-20T00:15:12;20.90;99.90
54788;DHT22;59598;48.112;16.280;2023-08-20T00:17:46;20.90;99.90
54788;DHT22;59598;48.112;16.280;2023-08-20T00:20:18;20.90;99.90
54788;DHT22;59598;48.112;16.280;2023-08-20T00:22:50;20.90;99.90
54788;DHT22;59598;48.112;16.280;2023-08-20T00:25:22;20.90;99.90
54788;DHT22;59598;48.112;16.280;2023-08-20T00:27:54;20.90;99.90
54788;DHT22;59598;48.112;16.280;2023-08-20T00:30:25;20.90;99.90
54788;DHT22;59598;48.112;16.280;2023-08-20T00:33:02;20.90;99.90
54788;DHT22;59598;48.112;16.280;2023-08-20T00:35:36;20.90;99.90
54788;DHT22;59598;48.112;16.280;2023-08-20T00:38:12;20.90;99.90
54788;DHT22;59598;48.112;16.280;2023-08-20T00:40:44;20.90;99.90
54788;DHT22;59598;48.112;16.280;2023-08-20T00:43:15;20.90;99.90
54788;DHT22;59598;48.112;16.280;2023-08-20T00:45:50;20.80;99.90
54788;DHT22;59598;48.112;16.280;2023-08-20T00:48:22;20.80;99.90
54788;DHT22;59598;48.112;16.280;2023-08-20T00:50:57;20.70;99.90
54788;DHT22;59598;48.112;16.280;2023-08-20T00:53:28;20.80;99.90
54788;DHT22;59598;48.112;16.280;2023-08-20T00:56:07;20.70;99.90
54788;DHT22;59598;48.112;16.280;2023-08-20T00:58:39;20.70;99.90
54788;DHT22;59598;48.112;16.280;2023-08-20T01:01:10;20.80;99.90
54788;DHT22;59598;48.112;16.280;2023-08-20T01:03:44;20.80;99.90
54788;DHT22;59598;48.112;16.280;2023-08-20T01:12:19;20.70;99.90
54788;DHT22;59598;48.112;16.280;2023-08-20T01:14:51;20.70;99.90
54788;DHT22;59598;48.112;16.280;2023-08-20T01:17:28;20.70;99.90
54788;DHT22;59598;48.112;16.280;2023-08-20T01:20:11;20.70;99.90
54788;DHT22;59598;48.112;16.280;2023-08-20T01:22:49;20.70;99.90
54788;DHT22;59598;48.112;16.280;2023-08-20T01:28:35;20.40;99.90
54788;DHT22;59598;48.112;16.280;2023-08-20T01:31:07;20.40;99.90
54788;DHT22;59598;48.112;16.280;2023-08-20T01:33:40;20.30;99.90
54788;DHT22;59598;48.112;16.280;2023-08-20T01:36:12;20.30;99.90
54788;DHT22;59598;48.112;16.280;2023-08-20T01:38:46;20.30;99.90
54788;DHT22;59598;48.112;16.280;2023-08-20T01:41:21;20.30;99.90
54788;DHT22;59598;48.112;16.280;2023-08-20T01:43:53;20.30;99.90
54788;DHT22;59598;48.112;16.280;2023-08-20T01:46:25;20.30;99.90
54788;DHT22;59598;48.112;16.280;2023-08-20T01:49:01;20.30;99.90
54788;DHT22;59598;48.112;16.280;2023-08-20T01:51:34;20.30;99.90
54788;DHT22;59598;48.112;16.280;2023-08-20T01:54:07;20.30;99.90
54788;DHT22;59598;48.112;16.280;2023-08-20T01:56:41;20.30;99.90
54788;DHT22;59598;48.112;16.280;2023-08-20T01:59:13;20.40;99.90
54788;DHT22;59598;48.112;16.280;2023-08-20T02:02:01;20.30;99.90
54788;DHT22;59598;48.112;16.280;2023-08-20T02:04:37;20.30;99.90
54788;DHT22;59598;48.112;16.280;2023-08-20T02:07:10;20.30;99.90
54788;DHT22;59598;48.112;16.280;2023-08-20T02:09:42;20.20;99.90
54788;DHT22;59598;48.112;16.280;2023-08-20T02:12:14;20.20;99.90
54788;DHT22;59598;48.112;16.280;2023-08-20T02:14:46;20.20;99.90
54788;DHT22;59598;48.112;16.280;2023-08-20T02:17:18;20.10;99.90
54788;DHT22;59598;48.112;16.280;2023-08-20T02:19:49;20.10;99.90
54788;DHT22;59598;48.112;16.280;2023-08-20T02:22:24;20.00;99.90
54788;DHT22;59598;48.112;16.280;2023-08-20T02:25:04;20.00;99.90
54788;DHT22;59598;48.112;16.280;2023-08-20T02:27:35;20.00;99.90
54788;DHT22;59598;48.112;16.280;2023-08-20T02:30:07;20.00;99.90
54788;DHT22;59598;48.112;16.280;2023-08-20T02:32:39;19.90;99.90
54788;DHT22;59598;48.112;16.280;2023-08-20T02:35:17;20.00;99.90
54788;DHT22;59598;48.112;16.280;2023-08-20T02:37:49;20.00;99.90
54788;DHT22;59598;48.112;16.280;2023-08-20T02:40:21;20.00;99.90
54788;DHT22;59598;48.112;16.280;2023-08-20T02:42:58;19.90;99.90
54788;DHT22;59598;48.112;16.280;2023-08-20T02:45:29;19.80;99.90
54788;DHT22;59598;48.112;16.280;2023-08-20T02:48:03;19.70;99.90
54788;DHT22;59598;48.112;16.280;2023-08-20T02:50:38;19.70;99.90
54788;DHT22;59598;48.112;16.280;2023-08-20T02:53:13;19.60;99.90
54788;DHT22;59598;48.112;16.280;2023-08-20T02:55:51;19.60;99.90
54788;DHT22;59598;48.112;16.280;2023-08-20T02:58:26;19.60;99.90
54788;DHT22;59598;48.112;16.280;2023-08-20T03:01:02;19.60;99.90
54788;DHT22;59598;48.112;16.280;2023-08-20T03:03:35;19.50;99.90
54788;DHT22;59598;48.112;16.280;2023-08-20T03:06:09;19.50;99.90
54788;DHT22;59598;48.112;16.280;2023-08-20T03:08:45;19.50;99.90
54788;DHT22;59598;48.112;16.280;2023-08-20T03:11:17;19.50;99.90
54788;DHT22;59598;48.112;16.280;2023-08-20T03:13:54;19.50;99.90
54788;DHT22;59598;48.112;16.280;2023-08-20T03:16:26;19.60;99.90
54788;DHT22;59598;48.112;16.280;2023-08-20T03:19:00;19.60;99.90
54788;DHT22;59598;48.112;16.280;2023-08-20T03:21:33;19.60;99.90
54788;DHT22;59598;48.112;16.280;2023-08-20T03:24:08;19.60;99.90
54788;DHT22;59598;48.112;16.280;2023-08-20T03:26:43;19.60;99.90
54788;DHT22;59598;48.112;16.280;2023-08-20T03:29:24;19.60;99.90
54788;DHT22;59598;48.112;16.280;2023-08-20T03:32:01;19.70;99.90
54788;DHT22;59598;48.112;16.280;2023-08-20T03:34:37;19.60;99.90
54788;DHT22;59598;48.112;16.280;2023-08-20T03:37:10;19.60;99.90
54788;DHT22;59598;48.112;16.280;2023-08-20T03:39:44;19.60;99.90
54788;DHT22;59598;48.112;16.280;2023-08-20T03:42:16;19.60;99.90
54788;DHT22;59598;48.112;16.280;2023-08-20T03:44:50;19.70;99.90
54788;DHT22;59598;48.112;16.280;2023-08-20T03:47:24;19.80;99.90
54788;DHT22;59598;48.112;16.280;2023-08-20T03:49:56;19.70;99.90
54788;DHT22;59598;48.112;16.280;2023-08-20T03:52:31;19.70;99.90
54788;DHT22;59598;48.112;16.280;2023-08-20T03:55:03;19.60;99.90
54788;DHT22;59598;48.112;16.280;2023-08-20T03:57:36;19.60;99.90
54788;DHT22;59598;48.112;16.280;2023-08-20T04:00:09;19.40;99.90
54788;DHT22;59598;48.112;16.280;2023-08-20T04:02:43;19.30;99.90
54788;DHT22;59598;48.112;16.280;2023-08-20T04:05:18;19.30;99.90
54788;DHT22;59598;48.112;16.280;2023-08-20T04:07:51;19.30;99.90
54788;DHT22;59598;48.112;16.280;2023-08-20T04:10:30;19.30;99.90
54788;DHT22;59598;48.112;16.280;2023-08-20T04:13:02;19.30;99.90
54788;DHT22;59598;48.112;16.280;2023-08-20T04:15:36;19.30;99.90
54788;DHT22;59598;48.112;16.280;2023-08-20T04:18:10;19.40;99.90
54788;DHT22;59598;48.112;16.280;2023-08-20T04:20:43;19.40;99.90
54788;DHT22;59598;48.112;16.280;2023-08-20T04:23:18;19.50;99.90
54788;DHT22;59598;48.112;16.280;2023-08-20T04:25:51;19.60;99.90
54788;DHT22;59598;48.112;16.280;2023-08-20T04:28:25;19.70;99.90
54788;DHT22;59598;48.112;16.280;2023-08-20T04:30:59;19.80;99.90
54788;DHT22;59598;48.112;16.280;2023-08-20T04:33:32;19.90;99.90
54788;DHT22;59598;48.112;16.280;2023-08-20T04:36:05;20.00;99.90
54788;DHT22;59598;48.112;16.280;2023-08-20T04:38:39;20.10;99.90
54788;DHT22;59598;48.112;16.280;2023-08-20T04:41:12;20.30;99.90
54788;DHT22;59598;48.112;16.280;2023-08-20T04:43:47;20.50;99.90
54788;DHT22;59598;48.112;16.280;2023-08-20T04:46:19;20.70;99.90
54788;DHT22;59598;48.112;16.280;2023-08-20T04:48:54;20.90;99.90
54788;DHT22;59598;48.112;16.280;2023-08-20T04:51:30;21.10;99.90
54788;DHT22;59598;48.112;16.280;2023-08-20T04:54:02;21.40;99.90
54788;DHT22;59598;48.112;16.280;2023-08-20T04:56:40;21.60;44.10
54788;DHT22;59598;48.112;16.280;2023-08-20T04:59:21;21.80;1.00
54788;DHT22;59598;48.112;16.280;2023-08-20T05:01:57;22.10;1.00
54788;DHT22;59598;48.112;16.280;2023-08-20T05:04:28;22.30;1.00
54788;DHT22;59598;48.112;16.280;2023-08-20T05:07:08;22.50;1.00
54788;DHT22;59598;48.112;16.280;2023-08-20T05:09:45;22.80;1.00
54788;DHT22;59598;48.112;16.280;2023-08-20T05:12:22;23.10;1.00
54788;DHT22;59598;48.112;16.280;2023-08-20T05:14:56;23.30;1.00
54788;DHT22;59598;48.112;16.280;2023-08-20T05:17:36;23.60;1.00
54788;DHT22;59598;48.112;16.280;2023-08-20T05:20:11;23.70;99.90
54788;DHT22;59598;48.112;16.280;2023-08-20T05:22:43;23.90;99.90
54788;DHT22;59598;48.112;16.280;2023-08-20T05:25:17;23.90;99.90
54788;DHT22;59598;48.112;16.280;2023-08-20T05:27:48;24.10;99.90
54788;DHT22;59598;48.112;16.280;2023-08-20T05:30:20;24.20;99.90
54788;DHT22;59598;48.112;16.280;2023-08-20T05:32:56;24.30;1.00
54788;DHT22;59598;48.112;16.280;2023-08-20T05:35:29;24.40;1.00
54788;DHT22;59598;48.112;16.280;2023-08-20T05:38:03;24.50;1.00
54788;DHT22;59598;48.112;16.280;2023-08-20T05:40:39;24.60;1.00
54788;DHT22;59598;48.112;16.280;2023-08-20T05:43:11;24.70;1.00
54788;DHT22;59598;48.112;16.280;2023-08-20T05:45:42;24.90;1.00
54788;DHT22;59598;48.112;16.280;2023-08-20T05:48:16;25.20;99.90
54788;DHT22;59598;48.112;16.280;2023-08-20T05:50:48;25.50;99.90
54788;DHT22;59598;48.112;16.280;2023-08-20T05:53:25;25.60;99.90
54788;DHT22;59598;48.112;16.280;2023-08-20T05:55:57;25.90;99.90
54788;DHT22;59598;48.112;16.280;2023-08-20T05:58:28;26.30;1.00
54788;DHT22;59598;48.112;16.280;2023-08-20T06:01:03;26.60;1.00
54788;DHT22;59598;48.112;16.280;2023-08-20T06:03:34;26.80;1.00
54788;DHT22;59598;48.112;16.280;2023-08-20T06:06:09;27.10;1.00
54788;DHT22;59598;48.112;16.280;2023-08-20T06:08:42;27.20;1.00
54788;DHT22;59598;48.112;16.280;2023-08-20T06:11:14;27.60;99.90
54788;DHT22;59598;48.112;16.280;2023-08-20T06:13:46;27.90;99.90
54788;DHT22;59598;48.112;16.280;2023-08-20T06:16:18;28.20;99.90
54788;DHT22;59598;48.112;16.280;2023-08-20T06:18:49;28.30;1.00
54788;DHT22;59598;48.112;16.280;2023-08-20T06:21:26;28.60;1.00
54788;DHT22;59598;48.112;16.280;2023-08-20T06:23:58;28.90;1.00
54788;DHT22;59598;48.112;16.280;2023-08-20T06:26:30;28.90;1.00
54788;DHT22;59598;48.112;16.280;2023-08-20T06:29:04;28.90;1.00
54788;DHT22;59598;48.112;16.280;2023-08-20T06:31:38;28.90;1.00
54788;DHT22;59598;48.112;16.280;2023-08-20T06:34:10;28.60;1.00
54788;DHT22;59598;48.112;16.280;2023-08-20T06:36:44;28.00;1.00
54788;DHT22;59598;48.112;16.280;2023-08-20T06:39:19;28.10;1.00
54788;DHT22;59598;48.112;16.280;2023-08-20T06:41:51;28.50;1.00
54788;DHT22;59598;48.112;16.280;2023-08-20T06:44:22;28.20;1.00
54788;DHT22;59598;48.112;16.280;2023-08-20T06:46:54;28.60;1.00
54788;DHT22;59598;48.112;16.280;2023-08-20T06:49:25;29.00;1.00
54788;DHT22;59598;48.112;16.280;2023-08-20T06:51:59;29.40;1.00
54788;DHT22;59598;48.112;16.280;2023-08-20T06:54:32;29.60;99.90
54788;DHT22;59598;48.112;16.280;2023-08-20T06:57:06;29.90;99.90
54788;DHT22;59598;48.112;16.280;2023-08-20T06:59:38;30.00;1.00
54788;DHT22;59598;48.112;16.280;2023-08-20T07:02:15;30.20;99.90
54788;DHT22;59598;48.112;16.280;2023-08-20T07:04:49;30.40;99.90
54788;DHT22;59598;48.112;16.280;2023-08-20T07:07:23;30.50;99.90
54788;DHT22;59598;48.112;16.280;2023-08-20T07:09:55;30.60;97.10
54788;DHT22;59598;48.112;16.280;2023-08-20T07:12:29;30.60;1.00
54788;DHT22;59598;48.112;16.280;2023-08-20T07:15:06;30.90;1.00
54788;DHT22;59598;48.112;16.280;2023-08-20T07:17:38;31.10;1.00
54788;DHT22;59598;48.112;16.280;2023-08-20T07:20:10;31.30;1.00
54788;DHT22;59598;48.112;16.280;2023-08-20T07:22:44;31.40;1.00
54788;DHT22;59598;48.112;16.280;2023-08-20T07:25:17;31.50;1.00
54788;DHT22;59598;48.112;16.280;2023-08-20T07:27:52;31.50;1.00
54788;DHT22;59598;48.112;16.280;2023-08-20T07:30:30;31.50;1.00
54788;DHT22;59598;48.112;16.280;2023-08-20T07:33:02;31.40;1.00
54788;DHT22;59598;48.112;16.280;2023-08-20T07:35:34;31.60;1.00
54788;DHT22;59598;48.112;16.280;2023-08-20T07:38:14;31.50;1.00
54788;DHT22;59598;48.112;16.280;2023-08-20T07:40:45;31.60;1.00
54788;DHT22;59598;48.112;16.280;2023-08-20T07:43:17;31.80;1.00
54788;DHT22;59598;48.112;16.280;2023-08-20T07:45:51;31.70;1.00
54788;DHT22;59598;48.112;16.280;2023-08-20T07:48:22;31.90;1.00
54788;DHT22;59598;48.112;16.280;2023-08-20T07:50:54;31.90;1.00
54788;DHT22;59598;48.112;16.280;2023-08-20T07:53:32;32.20;1.00
54788;DHT22;59598;48.112;16.280;2023-08-20T07:56:07;32.50;1.00
54788;DHT22;59598;48.112;16.280;2023-08-20T07:58:40;32.70;1.00
54788;DHT22;59598;48.112;16.280;2023-08-20T08:01:22;32.70;99.90
54788;DHT22;59598;48.112;16.280;2023-08-20T08:03:53;33.00;1.00
54788;DHT22;59598;48.112;16.280;2023-08-20T08:06:32;33.00;1.00
54788;DHT22;59598;48.112;16.280;2023-08-20T08:12:01;33.40;1.00
54788;DHT22;59598;48.112;16.280;2023-08-20T08:14:35;33.50;38.00
54788;DHT22;59598;48.112;16.280;2023-08-20T08:17:12;33.60;99.90
54788;DHT22;59598;48.112;16.280;2023-08-20T08:19:46;33.70;1.00
54788;DHT22;59598;48.112;16.280;2023-08-20T08:22:25;33.70;99.90
54788;DHT22;59598;48.112;16.280;2023-08-20T08:24:56;33.70;99.90
54788;DHT22;59598;48.112;16.280;2023-08-20T08:27:28;34.10;1.00
54788;DHT22;59598;48.112;16.280;2023-08-20T08:30:02;34.20;99.90
54788;DHT22;59598;48.112;16.280;2023-08-20T08:32:39;34.40;99.90
54788;DHT22;59598;48.112;16.280;2023-08-20T08:35:13;34.30;99.90
54788;DHT22;59598;48.112;16.280;2023-08-20T08:37:45;34.40;99.90
54788;DHT22;59598;48.112;16.280;2023-08-20T08:40:19;34.30;1.00
54788;DHT22;59598;48.112;16.280;2023-08-20T08:42:54;34.30;1.00
54788;DHT22;59598;48.112;16.280;2023-08-20T08:45:26;33.80;1.00
54788;DHT22;59598;48.112;16.280;2023-08-20T08:47:58;34.00;1.00
54788;DHT22;59598;48.112;16.280;2023-08-20T08:50:34;34.20;1.00
54788;DHT22;59598;48.112;16.280;2023-08-20T08:53:07;34.40;1.00
54788;DHT22;59598;48.112;16.280;2023-08-20T08:55:48;34.40;1.00
54788;DHT22;59598;48.112;16.280;2023-08-20T08:58:28;34.60;1.00
54788;DHT22;59598;48.112;16.280;2023-08-20T09:01:03;34.70;99.90
54788;DHT22;59598;48.112;16.280;2023-08-20T09:03:37;35.10;99.90
54788;DHT22;59598;48.112;16.280;2023-08-20T09:06:10;35.50;1.00
54788;DHT22;59598;48.112;16.280;2023-08-20T09:08:44;35.30;1.00
54788;DHT22;59598;48.112;16.280;2023-08-20T09:11:19;35.50;1.00
54788;DHT22;59598;48.112;16.280;2023-08-20T09:13:56;34.80;1.00
54788;DHT22;59598;48.112;16.280;2023-08-20T09:16:33;34.30;1.00
54788;DHT22;59598;48.112;16.280;2023-08-20T09:19:08;34.10;1.00
54788;DHT22;59598;48.112;16.280;2023-08-20T09:21:40;34.50;1.00
54788;DHT22;59598;48.112;16.280;2023-08-20T09:24:41;34.90;1.00
54788;DHT22;59598;48.112;16.280;2023-08-20T09:27:14;34.30;1.00
54788;DHT22;59598;48.112;16.280;2023-08-20T09:29:51;34.10;1.00
54788;DHT22;59598;48.112;16.280;2023-08-20T09:32:27;34.30;99.90
54788;DHT22;59598;48.112;16.280;2023-08-20T09:35:01;35.30;1.00
54788;DHT22;59598;48.112;16.280;2023-08-20T09:37:36;36.40;99.90
54788;DHT22;59598;48.112;16.280;2023-08-20T09:40:23;37.40;1.00
54788;DHT22;59598;48.112;16.280;2023-08-20T09:42:56;36.70;99.90
54788;DHT22;59598;48.112;16.280;2023-08-20T09:45:31;36.60;1.00
54788;DHT22;59598;48.112;16.280;2023-08-20T09:48:09;36.30;1.00
54788;DHT22;59598;48.112;16.280;2023-08-20T09:50:42;35.60;1.00
54788;DHT22;59598;48.112;16.280;2023-08-20T09:53:30;34.60;1.00
54788;DHT22;59598;48.112;16.280;2023-08-20T09:56:27;34.70;99.90
54788;DHT22;59598;48.112;16.280;2023-08-20T09:59:04;35.60;94.80
54788;DHT22;59598;48.112;16.280;2023-08-20T10:01:37;36.00;1.00
54788;DHT22;59598;48.112;16.280;2023-08-20T10:04:14;35.50;1.00
54788;DHT22;59598;48.112;16.280;2023-08-20T10:06:48;36.50;1.00
54788;DHT22;59598;48.112;16.280;2023-08-20T10:09:24;36.40;99.90
54788;DHT22;59598;48.112;16.280;2023-08-20T10:12:00;36.10;99.90
54788;DHT22;59598;48.112;16.280;2023-08-20T10:14:33;36.50;20.10
54788;DHT22;59598;48.112;16.280;2023-08-20T10:17:16;36.80;1.00
54788;DHT22;59598;48.112;16.280;2023-08-20T10:19:57;38.10;99.90
54788;DHT22;59598;48.112;16.280;2023-08-20T10:22:50;39.20;82.70
54788;DHT22;59598;48.112;16.280;2023-08-20T10:25:29;39.30;1.00
54788;DHT22;59598;48.112;16.280;2023-08-20T10:28:24;39.40;99.90
54788;DHT22;59598;48.112;16.280;2023-08-20T10:31:12;39.80;99.90
54788;DHT22;59598;48.112;16.280;2023-08-20T10:33:55;39.50;99.90
54788;DHT22;59598;48.112;16.280;2023-08-20T10:36:28;40.00;99.90
54788;DHT22;59598;48.112;16.280;2023-08-20T10:39:05;40.90;1.00
54788;DHT22;59598;48.112;16.280;2023-08-20T10:41:39;40.70;1.00
54788;DHT22;59598;48.112;16.280;2023-08-20T10:44:12;41.10;1.00
54788;DHT22;59598;48.112;16.280;2023-08-20T10:46:51;41.40;1.00
54788;DHT22;59598;48.112;16.280;2023-08-20T10:49:27;40.90;1.00
54788;DHT22;59598;48.112;16.280;2023-08-20T10:52:02;39.70;1.00
54788;DHT22;59598;48.112;16.280;2023-08-20T10:54:34;39.50;1.00
54788;DHT22;59598;48.112;16.280;2023-08-20T10:57:10;39.80;1.00
54788;DHT22;59598;48.112;16.280;2023-08-20T10:59:57;40.00;1.00
54788;DHT22;59598;48.112;16.280;2023-08-20T11:02:37;41.70;1.00
54788;DHT22;59598;48.112;16.280;2023-08-20T11:05:18;42.50;1.00
54788;DHT22;59598;48.112;16.280;2023-08-20T11:07:52;43.60;1.00
54788;DHT22;59598;48.112;16.280;2023-08-20T11:10:26;44.90;1.00
54788;DHT22;59598;48.112;16.280;2023-08-20T11:13:00;44.50;1.00
54788;DHT22;59598;48.112;16.280;2023-08-20T11:15:34;43.80;1.00
54788;DHT22;59598;48.112;16.280;2023-08-20T11:18:07;42.80;1.00
54788;DHT22;59598;48.112;16.280;2023-08-20T11:20:38;40.90;1.00
54788;DHT22;59598;48.112;16.280;2023-08-20T11:23:14;41.00;1.00
54788;DHT22;59598;48.112;16.280;2023-08-20T11:25:50;42.10;1.00
54788;DHT22;59598;48.112;16.280;2023-08-20T11:28:21;41.50;1.00
54788;DHT22;59598;48.112;16.280;2023-08-20T11:30:55;41.20;1.00
54788;DHT22;59598;48.112;16.280;2023-08-20T11:33:32;42.20;1.00
54788;DHT22;59598;48.112;16.280;2023-08-20T11:36:08;43.40;1.00
54788;DHT22;59598;48.112;16.280;2023-08-20T11:38:56;43.00;1.00
54788;DHT22;59598;48.112;16.280;2023-08-20T11:41:30;43.30;1.00
54788;DHT22;59598;48.112;16.280;2023-08-20T11:44:02;43.20;1.00
54788;DHT22;59598;48.112;16.280;2023-08-20T11:46:44;42.10;1.00
54788;DHT22;59598;48.112;16.280;2023-08-20T11:49:16;41.40;1.00
54788;DHT22;59598;48.112;16.280;2023-08-20T11:51:48;41.50;1.00
54788;DHT22;59598;48.112;16.280;2023-08-20T11:54:23;42.00;1.00
54788;DHT22;59598;48.112;16.280;2023-08-20T11:57:02;41.90;1.00
54788;DHT22;59598;48.112;16.280;2023-08-20T11:59:38;43.20;1.00
54788;DHT22;59598;48.112;16.280;2023-08-20T12:02:12;45.00;1.00
54788;DHT22;59598;48.112;16.280;2023-08-20T12:04:50;46.10;1.00
54788;DHT22;59598;48.112;16.280;2023-08-20T12:07:25;45.60;1.00
54788;DHT22;59598;48.112;16.280;2023-08-20T12:10:21;43.90;1.00
54788;DHT22;59598;48.112;16.280;2023-08-20T12:12:59;42.70;1.00
54788;DHT22;59598;48.112;16.280;2023-08-20T12:15:35;42.30;1.00
54788;DHT22;59598;48.112;16.280;2023-08-20T12:18:09;43.50;1.00
54788;DHT22;59598;48.112;16.280;2023-08-20T12:20:41;44.70;1.00
54788;DHT22;59598;48.112;16.280;2023-08-20T12:23:15;44.50;1.00
54788;DHT22;59598;48.112;16.280;2023-08-20T12:25:51;44.50;1.00
54788;DHT22;59598;48.112;16.280;2023-08-20T12:28:26;45.20;1.00
54788;DHT22;59598;48.112;16.280;2023-08-20T12:30:57;46.10;1.00
54788;DHT22;59598;48.112;16.280;2023-08-20T12:33:29;46.10;30.50
54788;DHT22;59598;48.112;16.280;2023-08-20T12:36:00;46.70;55.50
54788;DHT22;59598;48.112;16.280;2023-08-20T12:38:34;45.20;99.70
54788;DHT22;59598;48.112;16.280;2023-08-20T12:41:11;43.80;24.80
54788;DHT22;59598;48.112;16.280;2023-08-20T12:43:45;44.10;4.60
54788;DHT22;59598;48.112;16.280;2023-08-20T12:46:17;45.00;97.40
54788;DHT22;59598;48.112;16.280;2023-08-20T12:48:51;44.00;1.00
54788;DHT22;59598;48.112;16.280;2023-08-20T12:51:23;43.90;28.80
54788;DHT22;59598;48.112;16.280;2023-08-20T12:53:54;43.00;22.20
54788;DHT22;59598;48.112;16.280;2023-08-20T12:56:26;42.20;1.00
54788;DHT22;59598;48.112;16.280;2023-08-20T12:58:59;41.50;1.00
54788;DHT22;59598;48.112;16.280;2023-08-20T13:01:33;40.30;54.80
54788;DHT22;59598;48.112;16.280;2023-08-20T13:04:05;41.30;45.90
54788;DHT22;59598;48.112;16.280;2023-08-20T13:06:37;42.20;99.90
54788;DHT22;59598;48.112;16.280;2023-08-20T13:09:10;43.20;58.10
54788;DHT22;59598;48.112;16.280;2023-08-20T13:11:44;44.30;99.90
54788;DHT22;59598;48.112;16.280;2023-08-20T13:14:20;43.90;1.00
54788;DHT22;59598;48.112;16.280;2023-08-20T13:16:52;43.70;1.00
54788;DHT22;59598;48.112;16.280;2023-08-20T13:19:24;45.00;99.90
54788;DHT22;59598;48.112;16.280;2023-08-20T13:21:55;46.20;99.90
54788;DHT22;59598;48.112;16.280;2023-08-20T13:24:29;46.80;99.90
54788;DHT22;59598;48.112;16.280;2023-08-20T13:27:01;46.20;99.90
54788;DHT22;59598;48.112;16.280;2023-08-20T13:29:32;44.60;99.90
54788;DHT22;59598;48.112;16.280;2023-08-20T13:32:06;45.70;85.60
54788;DHT22;59598;48.112;16.280;2023-08-20T13:34:43;43.90;7.90
54788;DHT22;59598;48.112;16.280;2023-08-20T13:37:15;42.40;1.00
54788;DHT22;59598;48.112;16.280;2023-08-20T13:39:49;42.10;1.00
54788;DHT22;59598;48.112;16.280;2023-08-20T13:42:21;42.70;1.00
54788;DHT22;59598;48.112;16.280;2023-08-20T13:44:55;43.10;83.60
54788;DHT22;59598;48.112;16.280;2023-08-20T13:47:26;43.60;45.70
54788;DHT22;59598;48.112;16.280;2023-08-20T13:49:58;44.50;12.70
54788;DHT22;59598;48.112;16.280;2023-08-20T13:52:29;45.60;17.20
54788;DHT22;59598;48.112;16.280;2023-08-20T13:55:01;44.50;4.10
54788;DHT22;59598;48.112;16.280;2023-08-20T13:57:33;43.60;1.00
54788;DHT22;59598;48.112;16.280;2023-08-20T14:00:05;41.80;1.00
54788;DHT22;59598;48.112;16.280;2023-08-20T14:02:42;42.10;1.00
54788;DHT22;59598;48.112;16.280;2023-08-20T14:05:14;43.40;1.00
54788;DHT22;59598;48.112;16.280;2023-08-20T14:07:49;44.00;1.00
54788;DHT22;59598;48.112;16.280;2023-08-20T14:10:22;44.70;1.00
54788;DHT22;59598;48.112;16.280;2023-08-20T14:12:53;46.20;39.30
54788;DHT22;59598;48.112;16.280;2023-08-20T14:15:25;47.00;1.00
54788;DHT22;59598;48.112;16.280;2023-08-20T14:17:56;46.00;1.00
54788;DHT22;59598;48.112;16.280;2023-08-20T14:20:28;45.30;1.00
54788;DHT22;59598;48.112;16.280;2023-08-20T14:23:00;44.50;1.00
54788;DHT22;59598;48.112;16.280;2023-08-20T14:25:31;42.00;1.00
54788;DHT22;59598;48.112;16.280;2023-08-20T14:28:03;42.60;1.00
54788;DHT22;59598;48.112;16.280;2023-08-20T14:30:40;42.40;1.00
54788;DHT22;59598;48.112;16.280;2023-08-20T14:33:14;40.70;1.00
54788;DHT22;59598;48.112;16.280;2023-08-20T14:35:46;40.80;1.00
54788;DHT22;59598;48.112;16.280;2023-08-20T14:38:17;41.40;1.00
54788;DHT22;59598;48.112;16.280;2023-08-20T14:40:49;40.40;1.00
54788;DHT22;59598;48.112;16.280;2023-08-20T14:43:20;40.60;1.00
54788;DHT22;59598;48.112;16.280;2023-08-20T14:45:56;40.90;1.00
54788;DHT22;59598;48.112;16.280;2023-08-20T14:48:28;42.10;1.00
54788;DHT22;59598;48.112;16.280;2023-08-20T14:50:59;42.70;1.00
54788;DHT22;59598;48.112;16.280;2023-08-20T14:53:31;44.40;1.00
54788;DHT22;59598;48.112;16.280;2023-08-20T14:56:04;45.50;1.00
54788;DHT22;59598;48.112;16.280;2023-08-20T14:58:39;45.80;1.00
54788;DHT22;59598;48.112;16.280;2023-08-20T15:01:10;45.20;1.00
54788;DHT22;59598;48.112;16.280;2023-08-20T15:03:42;44.00;1.00
54788;DHT22;59598;48.112;16.280;2023-08-20T15:06:18;44.70;1.00
54788;DHT22;59598;48.112;16.280;2023-08-20T15:08:52;43.30;1.00
54788;DHT22;59598;48.112;16.280;2023-08-20T15:11:24;41.30;1.00
54788;DHT22;59598;48.112;16.280;2023-08-20T15:14:00;41.40;1.00
54788;DHT22;59598;48.112;16.280;2023-08-20T15:20:19;42.00;1.00
54788;DHT22;59598;48.112;16.280;2023-08-20T15:22:53;41.10;1.00
54788;DHT22;59598;48.112;16.280;2023-08-20T15:25:25;39.30;1.00
54788;DHT22;59598;48.112;16.280;2023-08-20T15:27:56;37.80;1.00
54788;DHT22;59598;48.112;16.280;2023-08-20T15:30:27;36.90;1.00
54788;DHT22;59598;48.112;16.280;2023-08-20T15:32:59;36.20;1.00
54788;DHT22;59598;48.112;16.280;2023-08-20T15:35:37;35.50;1.00
54788;DHT22;59598;48.112;16.280;2023-08-20T15:38:12;34.60;1.00
54788;DHT22;59598;48.112;16.280;2023-08-20T15:40:44;34.00;1.00
54788;DHT22;59598;48.112;16.280;2023-08-20T15:43:19;33.60;1.00
54788;DHT22;59598;48.112;16.280;2023-08-20T15:45:50;33.30;1.00
54788;DHT22;59598;48.112;16.280;2023-08-20T15:48:22;33.10;1.00
54788;DHT22;59598;48.112;16.280;2023-08-20T15:50:55;33.00;99.90
54788;DHT22;59598;48.112;16.280;2023-08-20T15:53:29;33.00;1.00
54788;DHT22;59598;48.112;16.280;2023-08-20T15:56:01;32.80;1.00
54788;DHT22;59598;48.112;16.280;2023-08-20T15:58:32;32.60;1.00
54788;DHT22;59598;48.112;16.280;2023-08-20T16:01:04;32.50;99.90
54788;DHT22;59598;48.112;16.280;2023-08-20T16:03:35;32.80;99.90
54788;DHT22;59598;48.112;16.280;2023-08-20T16:06:07;32.50;99.90
54788;DHT22;59598;48.112;16.280;2023-08-20T16:08:39;32.40;99.90
54788;DHT22;59598;48.112;16.280;2023-08-20T16:11:13;32.70;99.90
54788;DHT22;59598;48.112;16.280;2023-08-20T16:13:49;33.60;99.90
54788;DHT22;59598;48.112;16.280;2023-08-20T16:16:21;34.00;99.90
54788;DHT22;59598;48.112;16.280;2023-08-20T16:18:58;34.10;53.10
54788;DHT22;59598;48.112;16.280;2023-08-20T16:21:29;34.00;99.90
54788;DHT22;59598;48.112;16.280;2023-08-20T16:24:00;34.10;99.90